Belgrade, MT

10:23 PM MDT on October 01, 2014 (GMT -0600)
Sheepshank Drive | Change Station
CLOSE
Current Station
Personal Weather Station
Location: W of Belgrade, MT
Elevation: 4420 ft
Nearby Weather Stations

Elev 4420 ft 45.78 °N, 111.24 °W | Updated 5 seconds ago

Clear
Clear
39.7 °F
Feels Like 37 °F
N
3.8
Wind Variable Wind from NNE
Gusts 3.8 mph

Today
High -- | Low -- °F
--% Chance of Precip.
Yesterday
High -- | Low -- °F
Precip. -- in
7:23 AM 7:04 PM
First Quarter, 54% visible
Pressure 30.08 in
Visibility 10.0 miles
Clouds Clear
Windchill 37 °F
Dew Point 25 °F
Humidity 55%
Rainfall 0.00 in
Snow Depth 0 in , 1 in , 0 in
UV 0 out of 12
Pollen 3.40 out of 12
Air Quality Not available.
Flu Activity Not available.
METAR KBZN 020356Z 28010KT 10SM CLR 07/M03 A3006 RMK AO2 SLP184 T00671028

More Conditions Fewer Conditions

Pressure 30.08 in
Visibility 10.0 miles
Clouds Clear
Windchill 37 °F
Dew Point 25 °F
Humidity 55%
Rainfall 0.00 in
Snow Depth 0 in , 1 in , 0 in
UV 0 out of 12
Pollen 3.40 out of 12
Air Quality Not available.
Flu Activity Not available.
METAR KBZN 020356Z 28010KT 10SM CLR 07/M03 A3006 RMK AO2 SLP184 T00671028

More Conditions Fewer Conditions

10-Day Weather Forecast

Almanac

Astronomy

Oct. 01, 2014 Rise Set
Actual Time 7:23 AM MDT 7:04 PM MDT
Civil Twilight 6:53 AM MDT 7:34 PM MDT
Nautical Twilight 6:18 AM MDT 8:08 PM MDT
Astronomical Twilight 5:43 AM MDT 8:43 PM MDT
Moon 2:40 PM MDT (10/1) No Moon Set
Length of Visible Light 12h 40m
Length of Day
11h 41m
Tomorrow will be 3m 12s shorter.
First Quarter, 54% of the Moon is Illuminated
Oct 2
First Quarter
Oct 8
Full
Oct 15
Last Quarter
Oct 23
New
Oct 30
First Quarter

Yesterday's Extremes

State Highs State Lows

Community

WunderPhotos

Upload Photos

1,758,186 photos uploaded!

Nearby

Snow Depth

Station Depth Elevation
Skalkaho Summit 0 in 7250 ft
Wood Creek 1 in 5960 ft
Saddle Mountain 0 in 7900 ft
Dupuyer Creek 0 in 5750 ft
West Yellowstone 0 in 6700 ft

Earthquake Activity

City Distance Mag. Time & Date
No recent earthquake activity has been reported nearby.
Minimum magnitude displayed is 2.5.

Coastal Water Temperatures

Place Temperature
No Stations Reporting

Nearby Weather Stations